Denver (DEN/KDEN)

Information

Location
Denver, CO
Local Time
18:57 / 6:57 pm
GMT Time
01:57 / 1:57 am
Gates
C30
No FAA reported delays
METAR KDEN 250053Z 15004KT 10SM SCT100 BKN150 08/01 A3002 RMK AO2 SLP124 T00830006
TAF KDEN 250058Z 2501/2606 13007KT P6SM SCT110 BKN150 FM250300 16007KT P6SM SCT110 BKN170 FM250600 19009KT P6SM FEW150 FM251900 16008KT P6SM SCT150 SCT220